N215RM KEYW-MYGF
Flight info
| Callsign | N215RM |
|---|---|
| Flight time | 0h 46m |
| Altitude | 27000 |
| Route | TUNSL DCT CARNU DCT PREDA AR10 ZAPPA |
| Aircraft | SF50/L-SDGRWY/L |
Departure
| Time | 2026-04-26 18:11 |
|---|---|
| Airport | Key West International Airport (KEYW) |
Arrival
| Time | 2026-04-26 18:58 |
|---|---|
| Airport | Grand Bahama International Airport (MYGF) |
| Time | Latitude | Longitude | Altitude | Speed | Heading |
|---|---|---|---|---|---|
| 2026-04-26 17:34 | 24.55477 | -81.75668 | 9 ft | 0 kts | 6° |
| 2026-04-26 17:58 | 24.55490 | -81.75675 | 9 ft | 0 kts | 318° |
| 2026-04-26 18:03 | 24.55506 | -81.75678 | 9 ft | 8 kts | 348° |
| 2026-04-26 18:03 | 24.55528 | -81.75781 | 9 ft | 19 kts | 270° |
| 2026-04-26 18:03 | 24.55527 | -81.75928 | 6 ft | 20 kts | 270° |
| 2026-04-26 18:04 | 24.55527 | -81.76093 | 3 ft | 22 kts | 269° |
| 2026-04-26 18:04 | 24.55523 | -81.76246 | 2 ft | 18 kts | 269° |
| 2026-04-26 18:04 | 24.55523 | -81.76365 | 2 ft | 13 kts | 273° |
| 2026-04-26 18:05 | 24.55521 | -81.76608 | 2 ft | 11 kts | 269° |
| 2026-04-26 18:05 | 24.55525 | -81.76631 | 2 ft | 0 kts | 298° |
| 2026-04-26 18:09 | 24.55527 | -81.76635 | 2 ft | 4 kts | 304° |
| 2026-04-26 18:09 | 24.55589 | -81.76655 | 3 ft | 7 kts | 11° |
| 2026-04-26 18:09 | 24.55608 | -81.76632 | 3 ft | 2 kts | 88° |
| 2026-04-26 18:09 | 24.55608 | -81.76630 | 3 ft | 1 kts | 88° |
| 2026-04-26 18:10 | 24.55609 | -81.76604 | 3 ft | 0 kts | 88° |
| 2026-04-26 18:10 | 24.55611 | -81.76515 | 3 ft | 38 kts | 89° |
| 2026-04-26 18:10 | 24.55614 | -81.76004 | 6 ft | 94 kts | 89° |
| 2026-04-26 18:10 | 24.55633 | -81.75165 | 171 ft | 119 kts | 89° |
| 2026-04-26 18:11 | 24.55814 | -81.74186 | 358 ft | 143 kts | 54° |
| 2026-04-26 18:11 | 24.56736 | -81.73790 | 775 ft | 155 kts | 354° |
| 2026-04-26 18:11 | 24.57765 | -81.73954 | 1487 ft | 151 kts | 353° |
| 2026-04-26 18:11 | 24.58870 | -81.74067 | 1926 ft | 168 kts | 354° |
| 2026-04-26 18:12 | 24.60080 | -81.74191 | 2361 ft | 180 kts | 354° |
| 2026-04-26 18:12 | 24.61369 | -81.74324 | 2791 ft | 192 kts | 354° |
| 2026-04-26 18:12 | 24.62730 | -81.74466 | 3218 ft | 201 kts | 354° |
| 2026-04-26 18:12 | 24.64120 | -81.74264 | 3618 ft | 210 kts | 25° |
| 2026-04-26 18:13 | 24.65218 | -81.73187 | 4062 ft | 216 kts | 52° |
| 2026-04-26 18:13 | 24.66199 | -81.71906 | 4535 ft | 223 kts | 44° |
| 2026-04-26 18:13 | 24.67433 | -81.70835 | 5005 ft | 229 kts | 34° |
| 2026-04-26 18:13 | 24.68316 | -81.70170 | 5314 ft | 234 kts | 34° |
| 2026-04-26 18:14 | 24.70116 | -81.68726 | 5943 ft | 245 kts | 36° |
| 2026-04-26 18:14 | 24.71491 | -81.67575 | 6416 ft | 252 kts | 36° |
| 2026-04-26 18:14 | 24.72911 | -81.66402 | 6868 ft | 257 kts | 36° |
| 2026-04-26 18:14 | 24.74356 | -81.65217 | 7316 ft | 261 kts | 35° |
| 2026-04-26 18:15 | 24.75816 | -81.64012 | 7773 ft | 264 kts | 35° |
| 2026-04-26 18:15 | 24.77289 | -81.62799 | 8236 ft | 265 kts | 34° |
| 2026-04-26 18:15 | 24.78766 | -81.61580 | 8707 ft | 266 kts | 34° |
| 2026-04-26 18:15 | 24.80250 | -81.60355 | 9184 ft | 266 kts | 33° |
| 2026-04-26 18:16 | 24.81729 | -81.59136 | 9663 ft | 265 kts | 33° |
| 2026-04-26 18:16 | 24.84674 | -81.56704 | 10566 ft | 263 kts | 32° |
| 2026-04-26 18:16 | 24.86135 | -81.55499 | 11012 ft | 262 kts | 32° |
| 2026-04-26 18:17 | 24.87572 | -81.54313 | 11461 ft | 261 kts | 32° |
| 2026-04-26 18:17 | 24.89020 | -81.53117 | 11917 ft | 259 kts | 32° |
| 2026-04-26 18:17 | 24.90457 | -81.51930 | 12388 ft | 257 kts | 32° |
| 2026-04-26 18:17 | 24.91885 | -81.50750 | 12860 ft | 255 kts | 32° |
| 2026-04-26 18:18 | 24.93299 | -81.49581 | 13343 ft | 253 kts | 31° |
| 2026-04-26 18:18 | 24.94703 | -81.48420 | 13823 ft | 251 kts | 31° |
| 2026-04-26 18:18 | 24.96092 | -81.47271 | 14254 ft | 249 kts | 31° |
| 2026-04-26 18:18 | 24.97471 | -81.46130 | 14692 ft | 246 kts | 31° |
| 2026-04-26 18:19 | 24.98839 | -81.44998 | 15139 ft | 244 kts | 31° |
| 2026-04-26 18:19 | 25.00189 | -81.43879 | 15589 ft | 242 kts | 31° |
| 2026-04-26 18:19 | 25.01527 | -81.42770 | 16047 ft | 239 kts | 31° |
| 2026-04-26 18:19 | 25.02850 | -81.41673 | 16510 ft | 237 kts | 31° |
| 2026-04-26 18:20 | 25.04160 | -81.40587 | 16981 ft | 234 kts | 31° |
| 2026-04-26 18:20 | 25.05452 | -81.39517 | 17460 ft | 231 kts | 31° |
| 2026-04-26 18:20 | 25.06711 | -81.38470 | 17941 ft | 227 kts | 31° |
| 2026-04-26 18:20 | 25.07562 | -81.37764 | 18263 ft | 225 kts | 31° |
| 2026-04-26 18:21 | 25.09191 | -81.36410 | 18823 ft | 218 kts | 30° |
| 2026-04-26 18:21 | 25.10425 | -81.35393 | 18965 ft | 229 kts | 30° |
| 2026-04-26 18:21 | 25.11748 | -81.34302 | 18982 ft | 246 kts | 31° |
| 2026-04-26 18:21 | 25.13153 | -81.33132 | 18980 ft | 260 kts | 32° |
| 2026-04-26 18:22 | 25.14469 | -81.31669 | 18981 ft | 278 kts | 48° |
| 2026-04-26 18:22 | 25.15635 | -81.29918 | 18979 ft | 288 kts | 48° |
| 2026-04-26 18:22 | 25.16861 | -81.28136 | 18982 ft | 295 kts | 47° |
| 2026-04-26 18:22 | 25.18127 | -81.26308 | 18984 ft | 302 kts | 48° |
| 2026-04-26 18:23 | 25.19405 | -81.24437 | 18985 ft | 307 kts | 49° |
| 2026-04-26 18:23 | 25.20699 | -81.22540 | 18981 ft | 311 kts | 49° |
| 2026-04-26 18:23 | 25.22012 | -81.20622 | 18984 ft | 315 kts | 49° |
| 2026-04-26 18:23 | 25.23340 | -81.18680 | 18983 ft | 318 kts | 49° |
| 2026-04-26 18:24 | 25.24683 | -81.16716 | 18983 ft | 322 kts | 49° |
| 2026-04-26 18:24 | 25.26035 | -81.14734 | 18979 ft | 324 kts | 49° |
| 2026-04-26 18:24 | 25.27401 | -81.12734 | 18978 ft | 327 kts | 49° |
| 2026-04-26 18:24 | 25.28778 | -81.10715 | 18980 ft | 330 kts | 49° |
| 2026-04-26 18:25 | 25.30164 | -81.08685 | 18981 ft | 332 kts | 49° |
| 2026-04-26 18:25 | 25.31561 | -81.06634 | 18980 ft | 335 kts | 49° |
| 2026-04-26 18:25 | 25.32965 | -81.04575 | 18980 ft | 336 kts | 49° |
| 2026-04-26 18:25 | 25.34376 | -81.02503 | 18980 ft | 338 kts | 49° |
| 2026-04-26 18:26 | 25.35796 | -81.00416 | 18976 ft | 340 kts | 49° |
| 2026-04-26 18:26 | 25.37219 | -80.98322 | 18978 ft | 341 kts | 49° |
| 2026-04-26 18:26 | 25.38604 | -80.96281 | 18976 ft | 323 kts | 49° |
| 2026-04-26 18:26 | 25.39922 | -80.94339 | 18969 ft | 309 kts | 49° |
| 2026-04-26 18:27 | 25.41194 | -80.92477 | 18963 ft | 298 kts | 48° |
| 2026-04-26 18:27 | 25.42423 | -80.90672 | 18957 ft | 290 kts | 48° |
| 2026-04-26 18:27 | 25.43606 | -80.88925 | 18954 ft | 287 kts | 49° |
| 2026-04-26 18:27 | 25.44810 | -80.87151 | 18958 ft | 291 kts | 48° |
| 2026-04-26 18:28 | 25.46048 | -80.85338 | 18960 ft | 298 kts | 48° |
| 2026-04-26 18:28 | 25.47310 | -80.83485 | 18964 ft | 304 kts | 49° |
| 2026-04-26 18:28 | 25.48588 | -80.81592 | 18968 ft | 309 kts | 49° |
| 2026-04-26 18:28 | 25.49883 | -80.79677 | 18973 ft | 313 kts | 49° |
| 2026-04-26 18:29 | 25.51198 | -80.77742 | 18967 ft | 317 kts | 49° |
| 2026-04-26 18:29 | 25.52528 | -80.75784 | 18970 ft | 320 kts | 49° |
| 2026-04-26 18:29 | 25.53871 | -80.73798 | 18968 ft | 323 kts | 49° |
| 2026-04-26 18:29 | 25.55226 | -80.71794 | 18966 ft | 326 kts | 49° |
| 2026-04-26 18:30 | 25.56590 | -80.69778 | 18964 ft | 329 kts | 49° |
| 2026-04-26 18:30 | 25.57972 | -80.67736 | 18964 ft | 331 kts | 49° |
| 2026-04-26 18:30 | 25.59357 | -80.65689 | 18967 ft | 333 kts | 49° |
| 2026-04-26 18:30 | 25.60749 | -80.63626 | 18963 ft | 335 kts | 49° |
| 2026-04-26 18:31 | 25.62149 | -80.61551 | 18963 ft | 337 kts | 49° |
| 2026-04-26 18:31 | 25.63558 | -80.59462 | 18963 ft | 339 kts | 49° |
| 2026-04-26 18:31 | 25.64974 | -80.57365 | 18959 ft | 340 kts | 49° |
| 2026-04-26 18:31 | 25.66373 | -80.55291 | 18959 ft | 341 kts | 49° |
| 2026-04-26 18:32 | 25.67797 | -80.53179 | 18963 ft | 343 kts | 49° |
| 2026-04-26 18:32 | 25.69228 | -80.51054 | 18962 ft | 344 kts | 49° |
| 2026-04-26 18:32 | 25.70660 | -80.48927 | 18961 ft | 345 kts | 50° |
| 2026-04-26 18:32 | 25.72100 | -80.46789 | 18963 ft | 345 kts | 50° |
| 2026-04-26 18:33 | 25.73539 | -80.44651 | 18963 ft | 346 kts | 50° |
| 2026-04-26 18:33 | 25.74980 | -80.42509 | 18962 ft | 347 kts | 50° |
| 2026-04-26 18:33 | 25.76425 | -80.40360 | 18972 ft | 348 kts | 50° |
| 2026-04-26 18:33 | 25.77874 | -80.38205 | 18969 ft | 349 kts | 50° |
| 2026-04-26 18:34 | 25.79325 | -80.36043 | 18965 ft | 349 kts | 50° |
| 2026-04-26 18:34 | 25.80774 | -80.33885 | 18968 ft | 348 kts | 50° |
| 2026-04-26 18:34 | 25.82203 | -80.31758 | 18967 ft | 348 kts | 50° |
| 2026-04-26 18:34 | 25.83648 | -80.29604 | 18969 ft | 347 kts | 50° |
| 2026-04-26 18:35 | 25.85090 | -80.27453 | 18969 ft | 347 kts | 50° |
| 2026-04-26 18:35 | 25.86532 | -80.25302 | 18968 ft | 347 kts | 50° |
| 2026-04-26 18:35 | 25.87970 | -80.23154 | 18968 ft | 347 kts | 50° |
| 2026-04-26 18:35 | 25.89410 | -80.21003 | 18972 ft | 347 kts | 50° |
| 2026-04-26 18:36 | 25.90848 | -80.18854 | 18972 ft | 346 kts | 50° |
| 2026-04-26 18:36 | 25.92285 | -80.16705 | 18971 ft | 346 kts | 50° |
| 2026-04-26 18:36 | 25.93679 | -80.14520 | 18954 ft | 348 kts | 56° |
| 2026-04-26 18:36 | 25.94524 | -80.11990 | 18947 ft | 352 kts | 72° |
| 2026-04-26 18:37 | 25.95059 | -80.09326 | 18949 ft | 353 kts | 76° |
| 2026-04-26 18:37 | 25.95583 | -80.06662 | 18949 ft | 352 kts | 73° |
| 2026-04-26 18:37 | 25.96175 | -80.04106 | 18886 ft | 328 kts | 72° |
| 2026-04-26 18:37 | 25.96740 | -80.01721 | 18637 ft | 313 kts | 72° |
| 2026-04-26 18:38 | 25.97084 | -80.00187 | 18447 ft | 306 kts | 73° |
| 2026-04-26 18:38 | 25.97723 | -79.97251 | 18368 ft | 285 kts | 73° |
| 2026-04-26 18:38 | 25.98192 | -79.95161 | 18317 ft | 274 kts | 72° |
| 2026-04-26 18:38 | 25.98655 | -79.93106 | 18140 ft | 273 kts | 72° |
| 2026-04-26 18:39 | 25.98965 | -79.91720 | 18020 ft | 273 kts | 72° |
| 2026-04-26 18:39 | 25.99419 | -79.89676 | 17838 ft | 272 kts | 72° |
| 2026-04-26 18:39 | 25.99873 | -79.87637 | 17657 ft | 272 kts | 72° |
| 2026-04-26 18:39 | 26.00328 | -79.85599 | 17480 ft | 271 kts | 72° |
| 2026-04-26 18:40 | 26.00780 | -79.83564 | 17301 ft | 271 kts | 72° |
| 2026-04-26 18:40 | 26.01226 | -79.81559 | 17126 ft | 270 kts | 72° |
| 2026-04-26 18:40 | 26.01677 | -79.79530 | 16950 ft | 270 kts | 72° |
| 2026-04-26 18:40 | 26.02127 | -79.77502 | 16777 ft | 270 kts | 72° |
| 2026-04-26 18:41 | 26.02577 | -79.75475 | 16605 ft | 270 kts | 72° |
| 2026-04-26 18:41 | 26.03025 | -79.73451 | 16432 ft | 270 kts | 72° |
| 2026-04-26 18:41 | 26.03474 | -79.71427 | 16261 ft | 270 kts | 72° |
| 2026-04-26 18:41 | 26.03923 | -79.69394 | 16088 ft | 269 kts | 73° |
| 2026-04-26 18:42 | 26.04371 | -79.67373 | 15917 ft | 269 kts | 72° |
| 2026-04-26 18:42 | 26.04819 | -79.65348 | 15747 ft | 269 kts | 72° |
| 2026-04-26 18:42 | 26.05264 | -79.63328 | 15581 ft | 269 kts | 72° |
| 2026-04-26 18:42 | 26.05711 | -79.61307 | 15414 ft | 269 kts | 72° |
| 2026-04-26 18:43 | 26.06156 | -79.59286 | 15250 ft | 269 kts | 72° |
| 2026-04-26 18:43 | 26.06602 | -79.57266 | 15080 ft | 269 kts | 72° |
| 2026-04-26 18:43 | 26.07047 | -79.55247 | 14919 ft | 268 kts | 72° |
| 2026-04-26 18:43 | 26.07490 | -79.53229 | 14740 ft | 268 kts | 72° |
| 2026-04-26 18:44 | 26.07941 | -79.51194 | 14278 ft | 279 kts | 72° |
| 2026-04-26 18:44 | 26.08409 | -79.49062 | 13937 ft | 284 kts | 73° |
| 2026-04-26 18:44 | 26.08868 | -79.46949 | 13749 ft | 279 kts | 73° |
| 2026-04-26 18:44 | 26.09327 | -79.44867 | 13543 ft | 276 kts | 73° |
| 2026-04-26 18:45 | 26.09780 | -79.42802 | 13334 ft | 273 kts | 73° |
| 2026-04-26 18:45 | 26.10229 | -79.40754 | 13130 ft | 272 kts | 73° |
| 2026-04-26 18:45 | 26.10675 | -79.38718 | 12933 ft | 270 kts | 73° |
| 2026-04-26 18:45 | 26.11119 | -79.36687 | 12723 ft | 270 kts | 73° |
| 2026-04-26 18:46 | 26.11562 | -79.34662 | 12520 ft | 269 kts | 73° |
| 2026-04-26 18:46 | 26.12003 | -79.32641 | 12326 ft | 269 kts | 73° |
| 2026-04-26 18:46 | 26.12444 | -79.30621 | 12123 ft | 268 kts | 73° |
| 2026-04-26 18:46 | 26.12884 | -79.28604 | 11930 ft | 268 kts | 73° |
| 2026-04-26 18:47 | 26.13335 | -79.26543 | 11391 ft | 286 kts | 74° |
| 2026-04-26 18:47 | 26.13795 | -79.24427 | 10645 ft | 273 kts | 74° |
| 2026-04-26 18:47 | 26.14224 | -79.22439 | 9910 ft | 262 kts | 75° |
| 2026-04-26 18:47 | 26.14649 | -79.20495 | 9095 ft | 254 kts | 75° |
| 2026-04-26 18:48 | 26.15061 | -79.18604 | 8296 ft | 248 kts | 76° |
| 2026-04-26 18:48 | 26.15462 | -79.16754 | 7517 ft | 243 kts | 76° |
| 2026-04-26 18:48 | 26.15858 | -79.14938 | 6760 ft | 239 kts | 77° |
| 2026-04-26 18:48 | 26.16245 | -79.13152 | 5988 ft | 235 kts | 77° |
| 2026-04-26 18:49 | 26.16625 | -79.11397 | 5211 ft | 232 kts | 77° |
| 2026-04-26 18:49 | 26.17000 | -79.09668 | 4435 ft | 228 kts | 78° |
| 2026-04-26 18:49 | 26.17365 | -79.07980 | 3975 ft | 213 kts | 77° |
| 2026-04-26 18:49 | 26.17688 | -79.06496 | 3962 ft | 183 kts | 77° |
| 2026-04-26 18:50 | 26.18274 | -79.05370 | 3961 ft | 160 kts | 40° |
| 2026-04-26 18:50 | 26.19171 | -79.04665 | 3964 ft | 166 kts | 36° |
| 2026-04-26 18:50 | 26.20132 | -79.03814 | 3983 ft | 186 kts | 39° |
| 2026-04-26 18:50 | 26.21341 | -79.03173 | 3979 ft | 202 kts | 17° |
| 2026-04-26 18:51 | 26.22740 | -79.02730 | 3982 ft | 216 kts | 15° |
| 2026-04-26 18:51 | 26.24229 | -79.02260 | 3978 ft | 229 kts | 15° |
| 2026-04-26 18:51 | 26.25800 | -79.01764 | 3981 ft | 240 kts | 15° |
| 2026-04-26 18:51 | 26.27414 | -79.01254 | 3976 ft | 249 kts | 15° |
| 2026-04-26 18:52 | 26.29108 | -79.00719 | 3978 ft | 257 kts | 15° |
| 2026-04-26 18:52 | 26.30844 | -79.00171 | 3976 ft | 262 kts | 15° |
| 2026-04-26 18:52 | 26.32607 | -78.99615 | 3976 ft | 265 kts | 15° |
| 2026-04-26 18:52 | 26.34390 | -78.99053 | 3980 ft | 267 kts | 15° |
| 2026-04-26 18:53 | 26.36186 | -78.98487 | 3978 ft | 268 kts | 15° |
| 2026-04-26 18:53 | 26.37984 | -78.97914 | 3980 ft | 269 kts | 16° |
| 2026-04-26 18:53 | 26.39745 | -78.97194 | 3975 ft | 270 kts | 24° |
| 2026-04-26 18:53 | 26.41393 | -78.96190 | 3974 ft | 270 kts | 33° |
| 2026-04-26 18:54 | 26.42882 | -78.94909 | 3976 ft | 270 kts | 42° |
| 2026-04-26 18:54 | 26.44130 | -78.93345 | 3972 ft | 270 kts | 55° |
| 2026-04-26 18:54 | 26.45061 | -78.91499 | 3748 ft | 277 kts | 64° |
| 2026-04-26 18:54 | 26.45897 | -78.89538 | 3487 ft | 283 kts | 64° |
| 2026-04-26 18:55 | 26.46833 | -78.87585 | 3222 ft | 287 kts | 60° |
| 2026-04-26 18:55 | 26.47844 | -78.85657 | 2953 ft | 288 kts | 60° |
| 2026-04-26 18:55 | 26.48835 | -78.83704 | 2691 ft | 290 kts | 61° |
| 2026-04-26 18:55 | 26.49792 | -78.81751 | 2428 ft | 291 kts | 61° |
| 2026-04-26 18:56 | 26.50785 | -78.79746 | 2147 ft | 291 kts | 61° |
| 2026-04-26 18:56 | 26.51751 | -78.77818 | 1881 ft | 264 kts | 61° |
| 2026-04-26 18:56 | 26.52608 | -78.76129 | 1029 ft | 247 kts | 60° |
| 2026-04-26 18:56 | 26.53371 | -78.74636 | 892 ft | 208 kts | 62° |
| 2026-04-26 18:57 | 26.54031 | -78.73292 | 544 ft | 179 kts | 62° |
| 2026-04-26 18:57 | 26.54393 | -78.72544 | 440 ft | 155 kts | 62° |
| 2026-04-26 18:57 | 26.54973 | -78.71374 | 117 ft | 108 kts | 61° |
| 2026-04-26 18:57 | 26.55296 | -78.70709 | 15 ft | 92 kts | 61° |
| 2026-04-26 18:58 | 26.55536 | -78.70227 | 11 ft | 30 kts | 60° |
| 2026-04-26 18:58 | 26.55548 | -78.70204 | 10 ft | 0 kts | 56° |